createdAt,value
2017-08-21T00:01:22.611Z,1.93
2017-08-21T00:03:50.386Z,1.30
2017-08-21T00:06:18.104Z,1.47
2017-08-21T00:08:45.875Z,1.37
2017-08-21T00:11:13.660Z,1.40
2017-08-21T00:13:41.398Z,1.33
2017-08-21T00:16:09.113Z,1.50
2017-08-21T00:18:36.883Z,1.53
2017-08-21T00:21:04.620Z,1.20
2017-08-21T00:23:32.408Z,1.20
2017-08-21T00:26:00.915Z,1.67
2017-08-21T00:28:28.681Z,1.50
2017-08-21T00:30:56.479Z,1.33
2017-08-21T00:33:24.205Z,1.77
2017-08-21T00:35:51.930Z,1.50
2017-08-21T00:38:19.708Z,1.47
2017-08-21T00:40:47.429Z,1.30
2017-08-21T00:43:15.157Z,1.50
2017-08-21T00:45:43.658Z,1.80
2017-08-21T00:48:11.447Z,2.23
2017-08-21T00:50:39.184Z,1.50
2017-08-21T00:53:06.965Z,1.70
2017-08-21T00:55:34.689Z,1.50
2017-08-21T00:58:02.434Z,1.50
2017-08-21T01:00:30.203Z,1.70
2017-08-21T01:02:57.944Z,1.70
2017-08-21T01:05:25.771Z,1.73
2017-08-21T01:07:53.547Z,1.47
2017-08-21T01:10:21.326Z,1.10
2017-08-21T01:12:49.059Z,1.40
2017-08-21T01:15:16.787Z,1.67
2017-08-21T01:17:44.528Z,1.23
2017-08-21T01:20:12.236Z,1.60
2017-08-21T01:22:39.957Z,1.50
2017-08-21T01:25:07.732Z,1.87
2017-08-21T01:27:35.475Z,1.30
2017-08-21T01:30:03.209Z,1.60
2017-08-21T01:32:30.994Z,1.90
2017-08-21T01:34:59.088Z,1.40
2017-08-21T01:37:26.808Z,1.60
2017-08-21T01:39:54.580Z,1.97
2017-08-21T01:42:22.355Z,1.60
2017-08-21T01:44:50.083Z,1.67
2017-08-21T01:47:17.788Z,1.57
2017-08-21T01:49:45.524Z,1.90
2017-08-21T01:52:13.238Z,1.73
2017-08-21T01:54:41.740Z,1.63
2017-08-21T01:57:09.468Z,1.40
2017-08-21T01:59:37.231Z,1.30
2017-08-21T02:02:05.673Z,1.47
2017-08-21T02:04:33.465Z,1.57
2017-08-21T02:07:01.198Z,1.53
2017-08-21T02:09:28.937Z,1.47
2017-08-21T02:11:56.682Z,1.63
2017-08-21T02:14:24.398Z,1.90
2017-08-21T02:16:52.182Z,1.70
2017-08-21T02:19:19.976Z,2.00
2017-08-21T02:21:47.762Z,2.03
2017-08-21T02:24:15.489Z,1.77
2017-08-21T02:26:43.224Z,1.90
2017-08-21T02:29:10.965Z,1.67
2017-08-21T02:31:39.522Z,1.80
2017-08-21T02:34:07.254Z,1.83
2017-08-21T02:36:35.000Z,1.70
2017-08-21T02:39:02.732Z,1.43
2017-08-21T02:41:30.479Z,1.90
2017-08-21T02:43:59.183Z,2.00
2017-08-21T02:46:28.656Z,1.40
2017-08-21T02:48:56.387Z,1.90
2017-08-21T02:51:24.182Z,2.00
2017-08-21T02:53:51.906Z,1.63
2017-08-21T02:56:19.642Z,1.33
2017-08-21T02:58:47.369Z,1.80
2017-08-21T03:01:15.151Z,1.40
2017-08-21T03:03:42.896Z,1.67
2017-08-21T03:06:10.637Z,1.30
2017-08-21T03:08:38.422Z,1.77
2017-08-21T03:11:06.204Z,1.57
2017-08-21T03:13:33.929Z,1.97
2017-08-21T03:16:01.704Z,1.73
2017-08-21T03:18:29.475Z,1.40
2017-08-21T03:20:57.262Z,2.60
2017-08-21T03:23:25.040Z,1.50
2017-08-21T03:25:52.747Z,1.20
2017-08-21T03:28:20.527Z,1.80
2017-08-21T03:30:48.317Z,1.33
2017-08-21T03:33:16.049Z,1.40
2017-08-21T03:35:43.816Z,2.37
2017-08-21T03:38:11.581Z,2.17
2017-08-21T03:40:39.386Z,1.93
2017-08-21T03:43:07.157Z,2.03
2017-08-21T03:45:34.882Z,1.60
2017-08-21T03:48:02.621Z,1.70
2017-08-21T03:50:30.363Z,1.67
2017-08-21T03:52:58.172Z,1.40
2017-08-21T03:55:25.976Z,1.70
2017-08-21T03:57:53.704Z,1.80
2017-08-21T04:00:21.499Z,1.80
2017-08-21T04:02:49.224Z,2.33
2017-08-21T04:05:16.991Z,1.50
2017-08-21T04:07:44.721Z,1.90
2017-08-21T04:10:13.218Z,1.50
2017-08-21T04:12:40.946Z,2.00
2017-08-21T04:15:08.677Z,1.80
2017-08-21T04:17:36.460Z,1.73
2017-08-21T04:20:04.251Z,1.63
2017-08-21T04:22:32.000Z,1.50
2017-08-21T04:24:59.810Z,1.43
2017-08-21T04:27:27.529Z,1.77
2017-08-21T04:29:55.243Z,1.50
2017-08-21T04:32:23.040Z,1.93
2017-08-21T04:34:50.827Z,1.73
2017-08-21T04:37:18.608Z,2.40
2017-08-21T04:39:46.344Z,1.53
2017-08-21T04:42:14.124Z,1.97
2017-08-21T04:44:41.860Z,1.60
2017-08-21T04:47:09.651Z,1.90
2017-08-21T04:49:37.395Z,1.37
2017-08-21T04:52:05.205Z,2.13
2017-08-21T04:54:32.929Z,2.40
2017-08-21T04:57:00.703Z,1.77
2017-08-21T04:59:28.432Z,1.60
2017-08-21T05:01:56.964Z,1.67
2017-08-21T05:04:24.684Z,1.90
2017-08-21T05:06:52.394Z,2.00
2017-08-21T05:09:20.235Z,1.60
2017-08-21T05:11:48.290Z,1.50
2017-08-21T05:14:16.032Z,1.60
2017-08-21T05:16:43.834Z,1.60
2017-08-21T05:19:11.558Z,1.73
2017-08-21T05:21:39.308Z,1.70
2017-08-21T05:24:07.071Z,1.77
2017-08-21T05:26:34.836Z,1.87
2017-08-21T05:29:02.561Z,1.50
2017-08-21T05:31:31.128Z,2.10
2017-08-21T05:33:58.894Z,1.80
2017-08-21T05:36:26.656Z,1.90
2017-08-21T05:38:54.387Z,1.77
2017-08-21T05:41:22.856Z,1.90
2017-08-21T05:43:50.631Z,1.70
2017-08-21T05:46:18.449Z,1.43
2017-08-21T05:48:46.227Z,1.67
2017-08-21T05:51:14.756Z,1.60
2017-08-21T05:53:42.584Z,1.90
2017-08-21T05:56:10.314Z,1.90
2017-08-21T05:58:38.397Z,1.77
2017-08-21T06:01:06.329Z,1.60
2017-08-21T06:03:34.107Z,1.80
2017-08-21T06:06:01.895Z,1.80
2017-08-21T06:08:29.689Z,2.20
2017-08-21T06:10:57.401Z,2.20
2017-08-21T06:13:25.163Z,2.17
2017-08-21T06:15:53.574Z,1.57
2017-08-21T06:18:21.330Z,2.20
2017-08-21T06:20:49.075Z,1.83
2017-08-21T06:23:16.850Z,1.77
2017-08-21T06:25:44.643Z,1.80
2017-08-21T06:28:12.387Z,2.03
2017-08-21T06:30:40.109Z,1.80
2017-08-21T06:33:08.656Z,1.90
2017-08-21T06:35:36.443Z,1.77
2017-08-21T06:38:04.164Z,1.97
2017-08-21T06:40:32.690Z,2.23
2017-08-21T06:43:01.255Z,2.60
2017-08-21T06:45:29.023Z,2.03
2017-08-21T06:48:11.529Z,2.23
2017-08-21T06:50:39.350Z,2.10
2017-08-21T06:53:07.081Z,2.17
2017-08-21T06:55:34.821Z,2.00
2017-08-21T06:58:02.554Z,2.37
2017-08-21T07:00:30.328Z,1.80
2017-08-21T07:02:58.070Z,2.00
2017-08-21T07:05:25.843Z,1.77
2017-08-21T07:07:53.623Z,2.17
2017-08-21T07:10:21.387Z,2.27
2017-08-21T07:12:49.187Z,2.47
2017-08-21T07:15:16.981Z,2.00
2017-08-21T07:17:44.757Z,2.43
2017-08-21T07:20:12.498Z,2.13
2017-08-21T07:22:40.221Z,4.30
2017-08-21T07:25:07.954Z,2.30
2017-08-21T07:27:35.679Z,2.20
2017-08-21T07:30:03.461Z,2.60
2017-08-21T07:32:31.273Z,2.23
2017-08-21T07:34:59.119Z,2.40
2017-08-21T07:37:26.900Z,1.90
2017-08-21T07:39:54.743Z,2.50
2017-08-21T07:42:22.538Z,2.30
2017-08-21T07:44:50.276Z,2.13
2017-08-21T07:47:18.072Z,2.47
2017-08-21T07:49:45.850Z,2.90
2017-08-21T07:52:14.418Z,2.77
2017-08-21T07:54:42.197Z,2.50
2017-08-21T07:57:10.017Z,2.00
2017-08-21T07:59:37.823Z,2.00
2017-08-21T08:02:05.544Z,2.70
2017-08-21T08:04:33.442Z,2.13
2017-08-21T08:07:01.164Z,1.70
2017-08-21T08:09:28.993Z,2.10
2017-08-21T08:11:56.713Z,2.00
2017-08-21T08:14:24.496Z,2.20
2017-08-21T08:16:52.287Z,1.83
2017-08-21T08:19:20.124Z,2.10
2017-08-21T08:21:48.850Z,2.00
2017-08-21T08:24:16.576Z,1.87
2017-08-21T08:26:44.306Z,1.87
2017-08-21T08:29:12.089Z,1.93
2017-08-21T08:31:39.804Z,1.77
2017-08-21T08:34:07.612Z,1.60
2017-08-21T08:36:35.350Z,2.23
2017-08-21T08:39:03.149Z,2.00
2017-08-21T08:41:30.884Z,1.70
2017-08-21T08:43:58.710Z,1.90
2017-08-21T08:46:26.492Z,2.10
2017-08-21T08:48:54.211Z,2.13
2017-08-21T08:51:22.183Z,1.63
2017-08-21T08:53:49.930Z,2.33
2017-08-21T08:56:18.429Z,1.37
2017-08-21T08:58:46.219Z,1.77
2017-08-21T09:01:14.020Z,1.83
2017-08-21T09:03:41.740Z,2.50
2017-08-21T09:06:09.473Z,1.70
2017-08-21T09:08:37.221Z,1.67
2017-08-21T09:11:04.948Z,1.40
2017-08-21T09:13:32.682Z,1.63
2017-08-21T09:16:01.503Z,1.60
2017-08-21T09:18:29.257Z,1.43
2017-08-21T09:20:57.031Z,1.60
2017-08-21T09:23:24.850Z,1.47
2017-08-21T09:25:52.668Z,1.60
2017-08-21T09:28:20.450Z,1.90
2017-08-21T09:30:48.221Z,1.83
2017-08-21T09:33:16.038Z,1.70
2017-08-21T09:35:43.813Z,1.80
2017-08-21T09:38:12.365Z,1.77
2017-08-21T09:40:40.136Z,1.40
2017-08-21T09:43:07.904Z,1.30
2017-08-21T09:45:35.688Z,1.77
2017-08-21T09:48:03.563Z,1.50
2017-08-21T09:50:32.067Z,1.50
2017-08-21T09:52:59.830Z,1.50
2017-08-21T09:55:27.613Z,1.60
2017-08-21T09:57:55.403Z,2.12
2017-08-21T10:00:23.134Z,1.80
2017-08-21T10:02:50.946Z,1.70
2017-08-21T10:05:18.677Z,1.50
2017-08-21T10:07:46.397Z,1.40
2017-08-21T10:10:14.129Z,1.67
2017-08-21T10:12:41.954Z,1.50
2017-08-21T10:15:09.754Z,1.60
2017-08-21T10:17:37.527Z,1.80
2017-08-21T10:20:05.308Z,1.70
2017-08-21T10:22:33.109Z,1.40
2017-08-21T10:25:00.847Z,1.73
2017-08-21T10:27:28.590Z,1.43
2017-08-21T10:29:56.404Z,1.40
2017-08-21T10:32:24.510Z,1.60
2017-08-21T10:34:55.302Z,1.27
2017-08-21T10:37:29.581Z,1.33
2017-08-21T10:39:57.399Z,1.57
2017-08-21T10:42:25.197Z,1.70
2017-08-21T10:44:53.705Z,1.50
2017-08-21T10:47:21.444Z,1.40
2017-08-21T10:49:49.336Z,1.53
2017-08-21T10:52:17.136Z,1.07
2017-08-21T10:54:44.944Z,1.20
2017-08-21T10:57:12.670Z,1.30
2017-08-21T10:59:40.460Z,1.40
2017-08-21T11:02:08.250Z,1.00
2017-08-21T11:04:37.340Z,1.20
2017-08-21T11:07:05.126Z,1.20
2017-08-21T11:09:32.916Z,1.20
2017-08-21T11:12:00.709Z,1.57
2017-08-21T11:14:28.475Z,1.73
2017-08-21T11:16:56.190Z,0.90
2017-08-21T11:19:23.914Z,1.00
2017-08-21T11:21:52.154Z,1.30
2017-08-21T11:24:19.951Z,1.70
2017-08-21T11:26:47.732Z,1.50
2017-08-21T11:29:15.468Z,1.53
2017-08-21T11:31:43.287Z,1.00
2017-08-21T11:34:11.109Z,1.37
2017-08-21T11:36:38.845Z,1.33
2017-08-21T11:39:06.567Z,1.40
2017-08-21T11:41:34.288Z,1.20
2017-08-21T11:44:02.109Z,1.10
2017-08-21T11:46:29.833Z,1.10
2017-08-21T11:48:57.561Z,1.23
2017-08-21T11:51:26.086Z,1.13
2017-08-21T11:53:53.881Z,1.60
2017-08-21T11:56:21.673Z,1.50
2017-08-21T11:58:49.399Z,0.87
2017-08-21T12:01:17.165Z,1.70
2017-08-21T12:03:44.892Z,1.20
2017-08-21T12:06:12.622Z,1.40
2017-08-21T12:08:40.346Z,1.03
2017-08-21T12:11:08.097Z,1.10
2017-08-21T12:13:35.898Z,1.10
2017-08-21T12:16:03.670Z,1.27
2017-08-21T12:18:31.400Z,1.63
2017-08-21T12:20:59.223Z,1.33
2017-08-21T12:23:27.005Z,1.23
2017-08-21T12:25:54.794Z,1.37
2017-08-21T12:28:22.541Z,1.30
2017-08-21T12:30:50.309Z,1.13
2017-08-21T12:33:18.926Z,1.30
2017-08-21T12:35:46.678Z,1.17
2017-08-21T12:38:15.234Z,1.77
2017-08-21T12:40:43.005Z,1.60
2017-08-21T12:43:10.797Z,1.13
2017-08-21T12:45:38.602Z,1.47
2017-08-21T12:48:06.371Z,1.40
2017-08-21T12:50:34.100Z,1.43
2017-08-21T12:53:01.891Z,1.30
2017-08-21T12:55:29.608Z,1.43
2017-08-21T12:57:57.345Z,1.20
2017-08-21T13:00:25.152Z,1.40
2017-08-21T13:02:52.865Z,1.20
2017-08-21T13:05:20.606Z,1.80
2017-08-21T13:07:48.373Z,1.33
2017-08-21T13:10:16.123Z,1.40
2017-08-21T13:12:43.923Z,0.93
2017-08-21T13:15:11.651Z,0.80
2017-08-21T13:17:39.373Z,1.30
2017-08-21T13:20:07.097Z,1.20
2017-08-21T13:22:35.592Z,1.00
2017-08-21T13:25:03.309Z,1.00
2017-08-21T13:27:31.127Z,2.60
2017-08-21T13:29:58.913Z,1.40
2017-08-21T13:32:26.695Z,0.93
2017-08-21T13:34:54.435Z,1.20
2017-08-21T13:37:22.204Z,1.60
2017-08-21T13:39:49.984Z,2.00
2017-08-21T13:42:17.768Z,1.20
2017-08-21T13:44:45.692Z,1.43
2017-08-21T13:47:14.236Z,1.20
2017-08-21T13:49:42.009Z,1.20
2017-08-21T13:52:09.741Z,1.17
2017-08-21T13:54:37.535Z,1.30
2017-08-21T13:57:05.309Z,1.17
2017-08-21T13:59:33.033Z,1.40
2017-08-21T14:02:00.782Z,1.20
2017-08-21T14:04:28.506Z,1.60
2017-08-21T14:06:56.289Z,1.03
2017-08-21T14:09:24.088Z,1.40
2017-08-21T14:11:51.810Z,1.80
2017-08-21T14:14:19.538Z,1.60
2017-08-21T14:16:47.343Z,2.40
2017-08-21T14:19:15.120Z,2.07
2017-08-21T14:21:42.845Z,1.47
2017-08-21T14:24:10.628Z,1.30
2017-08-21T14:26:38.404Z,2.13
2017-08-21T14:29:06.146Z,1.77
2017-08-21T14:31:33.949Z,1.40
2017-08-21T14:34:01.669Z,1.20
2017-08-21T14:36:29.382Z,1.00
2017-08-21T14:38:57.129Z,1.70
2017-08-21T14:41:24.918Z,1.30
2017-08-21T14:43:52.708Z,1.33
2017-08-21T14:46:21.250Z,1.30
2017-08-21T14:48:48.977Z,1.33
2017-08-21T14:51:16.762Z,2.10
2017-08-21T14:53:44.499Z,1.80
2017-08-21T14:56:12.211Z,1.63
2017-08-21T14:58:39.959Z,1.37
2017-08-21T15:01:07.745Z,1.53
2017-08-21T15:03:35.522Z,1.10
2017-08-21T15:06:03.340Z,1.60
2017-08-21T15:08:31.147Z,1.30
2017-08-21T15:10:58.874Z,1.50
2017-08-21T15:13:26.645Z,1.57
2017-08-21T15:15:54.560Z,1.50
2017-08-21T15:18:22.282Z,1.20
2017-08-21T15:20:50.090Z,2.07
2017-08-21T15:23:17.841Z,2.30
2017-08-21T15:25:47.568Z,1.70
2017-08-21T15:28:15.366Z,1.27
2017-08-21T15:30:45.092Z,1.73
2017-08-21T15:33:12.891Z,1.63
2017-08-21T15:35:40.681Z,2.50
2017-08-21T15:38:08.438Z,1.50
2017-08-21T15:40:36.624Z,1.50
2017-08-21T15:43:04.440Z,1.47
2017-08-21T15:45:32.212Z,1.60
2017-08-21T15:47:59.928Z,1.77
2017-08-21T15:50:27.665Z,1.40
2017-08-21T15:52:55.412Z,2.00
2017-08-21T15:55:23.214Z,1.60
2017-08-21T15:57:51.029Z,1.30
2017-08-21T16:00:18.771Z,1.93
2017-08-21T16:02:46.593Z,1.30
2017-08-21T16:05:14.340Z,2.30
2017-08-21T16:07:42.086Z,1.50
2017-08-21T16:10:09.856Z,1.30
2017-08-21T16:12:37.598Z,1.60
2017-08-21T16:15:05.322Z,1.60
2017-08-21T16:17:33.068Z,1.60
2017-08-21T16:20:01.600Z,1.47
2017-08-21T16:22:29.397Z,1.60
2017-08-21T16:24:57.149Z,1.40
2017-08-21T16:27:24.920Z,1.77
2017-08-21T16:29:52.699Z,1.70
2017-08-21T16:32:20.507Z,3.33
2017-08-21T16:34:48.292Z,1.70
2017-08-21T16:37:16.013Z,2.37
2017-08-21T16:39:43.772Z,1.27
2017-08-21T16:42:12.022Z,2.07
2017-08-21T16:44:39.812Z,1.73
2017-08-21T16:47:07.551Z,2.10
2017-08-21T16:49:35.319Z,1.90
2017-08-21T16:52:03.078Z,1.50
2017-08-21T16:54:30.811Z,2.13
2017-08-21T16:56:58.598Z,1.13
2017-08-21T16:59:26.329Z,1.47
2017-08-21T17:01:54.071Z,1.70
2017-08-21T17:04:21.978Z,2.35
2017-08-21T17:06:49.726Z,2.50
2017-08-21T17:09:17.498Z,2.73
2017-08-21T17:11:45.525Z,2.00
2017-08-21T17:14:13.244Z,1.53
2017-08-21T17:16:41.004Z,1.97
2017-08-21T17:19:08.975Z,1.90
2017-08-21T17:21:37.808Z,1.77
2017-08-21T17:24:05.609Z,1.90
2017-08-21T17:26:33.385Z,1.97
2017-08-21T17:29:01.259Z,1.60
2017-08-21T17:31:29.047Z,1.70
2017-08-21T17:33:57.584Z,1.43
2017-08-21T17:36:25.371Z,1.93
2017-08-21T17:38:53.142Z,1.90
2017-08-21T17:41:23.251Z,3.60
2017-08-21T17:43:51.096Z,1.90
2017-08-21T17:46:18.808Z,1.73
2017-08-21T17:48:46.593Z,1.87
2017-08-21T17:51:14.356Z,1.87
2017-08-21T17:53:42.132Z,1.57
2017-08-21T17:56:09.955Z,1.53
2017-08-21T17:58:37.808Z,2.03
2017-08-21T18:01:05.659Z,1.90
2017-08-21T18:03:34.188Z,3.50
2017-08-21T18:06:37.115Z,3.00
2017-08-21T18:09:04.903Z,1.63
2017-08-21T18:11:32.722Z,1.67
2017-08-21T18:14:00.882Z,2.20
2017-08-21T18:16:28.665Z,1.90
2017-08-21T18:18:56.469Z,1.60
2017-08-21T18:21:24.509Z,1.90
2017-08-21T18:23:52.433Z,2.30
2017-08-21T18:26:20.153Z,1.90
2017-08-21T18:28:47.957Z,2.13
2017-08-21T18:31:16.299Z,2.07
2017-08-21T18:33:44.214Z,1.27
2017-08-21T18:36:11.945Z,2.40
2017-08-21T18:38:39.724Z,2.10
2017-08-21T18:41:07.612Z,1.50
2017-08-21T18:43:35.415Z,2.03
2017-08-21T18:46:03.139Z,1.60
2017-08-21T18:48:30.855Z,3.27
2017-08-21T18:50:58.595Z,2.23
2017-08-21T18:53:26.379Z,2.10
2017-08-21T18:55:54.161Z,2.07
2017-08-21T18:58:21.985Z,2.00
2017-08-21T19:00:50.838Z,1.87
2017-08-21T19:03:19.770Z,1.63
2017-08-21T19:05:48.756Z,2.20
2017-08-21T19:08:18.083Z,2.50
2017-08-21T19:10:51.477Z,2.23
2017-08-21T19:13:20.261Z,2.20
2017-08-21T19:15:50.224Z,1.93
2017-08-21T19:18:19.038Z,2.17
2017-08-21T19:20:46.871Z,2.20
2017-08-21T19:23:14.600Z,2.20
2017-08-21T19:25:43.645Z,2.00
2017-08-21T19:28:11.877Z,1.90
2017-08-21T19:30:40.886Z,2.20
2017-08-21T19:33:10.416Z,2.40
2017-08-21T19:35:38.641Z,2.03
2017-08-21T19:38:07.242Z,2.50
2017-08-21T19:40:35.277Z,1.97
2017-08-21T19:43:03.879Z,2.70
2017-08-21T19:45:32.171Z,2.67
2017-08-21T19:48:01.377Z,2.50
2017-08-21T19:50:29.906Z,2.27
2017-08-21T19:52:59.521Z,2.30
2017-08-21T19:55:28.091Z,2.43
2017-08-21T19:57:57.151Z,2.40
2017-08-21T20:00:25.040Z,2.80
2017-08-21T20:02:53.734Z,2.10
2017-08-21T20:05:21.545Z,2.37
2017-08-21T20:07:52.123Z,2.97
2017-08-21T20:10:19.909Z,4.10
2017-08-21T20:12:47.624Z,2.37
2017-08-21T20:15:15.968Z,2.47
2017-08-21T20:17:47.589Z,2.50
2017-08-21T20:20:18.027Z,2.50
2017-08-21T20:22:48.329Z,2.43
2017-08-21T20:25:16.742Z,1.70
2017-08-21T20:27:46.309Z,2.13
2017-08-21T20:30:15.713Z,2.00
2017-08-21T20:32:45.035Z,2.67
2017-08-21T20:35:12.854Z,2.57
2017-08-21T20:37:41.431Z,2.10
2017-08-21T20:40:09.294Z,2.03
2017-08-21T20:42:37.079Z,2.63
2017-08-21T20:45:04.811Z,2.47
2017-08-21T20:47:32.592Z,2.43
2017-08-21T20:50:00.387Z,2.30
2017-08-21T20:52:28.352Z,2.20
2017-08-21T20:54:56.094Z,2.30
2017-08-21T20:57:23.888Z,2.77
2017-08-21T20:59:51.688Z,2.60
2017-08-21T21:02:19.428Z,2.47
2017-08-21T21:04:47.157Z,2.43
2017-08-21T21:07:14.880Z,2.13
2017-08-21T21:09:42.652Z,2.97
2017-08-21T21:12:10.424Z,2.50
2017-08-21T21:14:38.169Z,3.63
2017-08-21T21:17:05.944Z,2.20
2017-08-21T21:19:33.721Z,2.60
2017-08-21T21:22:01.515Z,3.00
2017-08-21T21:24:29.361Z,2.27
2017-08-21T21:26:57.162Z,3.17
2017-08-21T21:29:25.007Z,2.40
2017-08-21T21:31:52.832Z,3.03
2017-08-21T21:34:20.575Z,2.40
2017-08-21T21:36:49.595Z,2.17
2017-08-21T21:39:17.447Z,2.37
2017-08-21T21:41:45.204Z,2.57
2017-08-21T21:44:12.972Z,2.10
2017-08-21T21:46:40.750Z,1.80
2017-08-21T21:49:08.546Z,2.03
2017-08-21T21:51:36.411Z,2.53
2017-08-21T21:54:04.261Z,2.20
2017-08-21T21:56:32.074Z,2.00
2017-08-21T21:58:59.898Z,2.20
2017-08-21T22:01:27.680Z,2.90
2017-08-21T22:03:55.426Z,2.60
2017-08-21T22:06:23.239Z,3.73
2017-08-21T22:08:50.972Z,3.50
2017-08-21T22:11:21.078Z,3.20
2017-08-21T22:13:48.966Z,2.80
2017-08-21T22:16:16.702Z,2.83
2017-08-21T22:18:44.469Z,3.30
2017-08-21T22:21:12.276Z,2.87
2017-08-21T22:23:39.986Z,2.93
2017-08-21T22:26:07.691Z,3.60
2017-08-21T22:28:36.083Z,2.70
2017-08-21T22:31:03.855Z,2.40
2017-08-21T22:33:31.591Z,3.30
2017-08-21T22:35:59.389Z,3.50
2017-08-21T22:38:27.129Z,3.73
2017-08-21T22:40:54.854Z,3.90
2017-08-21T22:43:22.674Z,3.70
2017-08-21T22:45:50.461Z,2.73
2017-08-21T22:48:18.249Z,3.33
2017-08-21T22:50:45.996Z,3.23
2017-08-21T22:53:13.768Z,3.20
2017-08-21T22:55:41.485Z,3.00
2017-08-21T22:58:09.289Z,3.47
2017-08-21T23:00:37.060Z,3.60
2017-08-21T23:03:04.795Z,3.20
2017-08-21T23:05:32.607Z,2.97
2017-08-21T23:08:00.329Z,2.47
2017-08-21T23:10:28.045Z,3.53
2017-08-21T23:12:55.847Z,2.40
2017-08-21T23:15:23.577Z,2.67
2017-08-21T23:17:51.292Z,1.90
2017-08-21T23:20:19.022Z,1.80
2017-08-21T23:22:46.805Z,3.00
2017-08-21T23:25:14.589Z,2.80
2017-08-21T23:27:42.360Z,2.10
2017-08-21T23:30:10.142Z,2.30
2017-08-21T23:32:37.910Z,1.90
2017-08-21T23:35:05.662Z,2.20
2017-08-21T23:37:33.380Z,2.00
2017-08-21T23:40:01.148Z,1.63
2017-08-21T23:42:28.952Z,1.60
2017-08-21T23:44:56.737Z,2.00
2017-08-21T23:47:24.477Z,1.80
2017-08-21T23:49:52.203Z,1.33
2017-08-21T23:52:19.977Z,1.63
2017-08-21T23:54:48.051Z,1.40
2017-08-21T23:57:15.880Z,1.63
2017-08-21T23:59:43.591Z,1.77
